createdAt,value
2022-12-11T00:00:46.727Z,8.30
2022-12-11T00:03:16.519Z,9.32
2022-12-11T00:05:46.513Z,10.63
2022-12-11T00:08:17.132Z,7.85
2022-12-11T00:10:51.313Z,8.93
2022-12-11T00:13:21.049Z,7.35
2022-12-11T00:15:50.260Z,10.80
2022-12-11T00:18:19.959Z,12.40
2022-12-11T00:20:48.991Z,5.75
2022-12-11T00:23:18.400Z,17.50
2022-12-11T00:25:48.003Z,5.85
2022-12-11T00:28:19.473Z,11.70
2022-12-11T00:30:48.817Z,20.80
2022-12-11T00:33:18.186Z,14.27
2022-12-11T00:35:47.700Z,14.80
2022-12-11T00:38:17.538Z,15.32
2022-12-11T00:40:46.984Z,14.80
2022-12-11T00:43:16.670Z,8.80
2022-12-11T00:45:47.032Z,21.05
2022-12-11T00:48:17.078Z,11.55
2022-12-11T00:50:46.647Z,10.65
2022-12-11T00:53:16.259Z,12.20
2022-12-11T00:55:45.976Z,16.95
2022-12-11T00:58:16.152Z,17.77
2022-12-11T01:00:45.930Z,37.45
2022-12-11T01:03:16.021Z,11.18
2022-12-11T01:06:06.218Z,10.23
2022-12-11T01:08:38.666Z,13.68
2022-12-11T01:11:09.441Z,12.90
2022-12-11T01:13:39.024Z,25.48
2022-12-11T01:16:15.560Z,20.75
2022-12-11T01:18:45.137Z,10.93
2022-12-11T01:21:14.635Z,15.77
2022-12-11T01:23:43.745Z,12.63
2022-12-11T01:26:14.273Z,12.68
2022-12-11T01:28:43.323Z,16.60
2022-12-11T01:31:16.292Z,11.38
2022-12-11T01:33:45.911Z,10.73
2022-12-11T01:36:16.658Z,14.52
2022-12-11T01:38:46.153Z,18.33
2022-12-11T01:41:15.846Z,16.10
2022-12-11T01:44:00.348Z,15.23
2022-12-11T01:46:32.954Z,15.40
2022-12-11T01:49:03.198Z,16.17
2022-12-11T01:51:33.490Z,13.90
2022-12-11T01:54:03.416Z,17.73
2022-12-11T01:56:32.825Z,31.23
2022-12-11T01:59:07.497Z,18.20
2022-12-11T02:01:39.217Z,20.60
2022-12-11T02:04:08.966Z,17.55
2022-12-11T02:06:39.558Z,17.80
2022-12-11T02:09:13.321Z,19.50
2022-12-11T02:11:52.117Z,15.95
2022-12-11T02:14:33.090Z,16.38
2022-12-11T02:17:08.442Z,20.73
2022-12-11T02:19:51.123Z,21.85
2022-12-11T02:22:36.560Z,19.80
2022-12-11T02:25:09.833Z,23.13
2022-12-11T02:27:45.985Z,13.02
2022-12-11T02:30:16.843Z,22.23
2022-12-11T02:32:51.662Z,22.33
2022-12-11T02:35:32.277Z,28.13
2022-12-11T02:38:10.409Z,19.38
2022-12-11T02:40:41.423Z,28.83
2022-12-11T02:43:14.126Z,23.67
2022-12-11T02:45:44.249Z,19.63
2022-12-11T02:48:14.123Z,30.23
2022-12-11T02:50:48.078Z,27.13
2022-12-11T02:53:19.678Z,22.85
2022-12-11T02:55:49.843Z,22.15
2022-12-11T02:58:20.394Z,36.38
2022-12-11T03:00:49.967Z,15.32
2022-12-11T03:03:19.524Z,32.83
2022-12-11T03:05:49.827Z,12.32
2022-12-11T03:08:19.884Z,33.53
2022-12-11T03:10:49.647Z,33.63
2022-12-11T03:13:20.181Z,26.65
2022-12-11T03:16:08.415Z,17.30
2022-12-11T03:18:41.925Z,19.77
2022-12-11T03:21:13.695Z,41.70
2022-12-11T03:23:51.859Z,33.10
2022-12-11T03:26:21.669Z,17.30
2022-12-11T03:28:51.406Z,22.45
2022-12-11T03:31:31.530Z,36.03
2022-12-11T03:34:02.425Z,24.02
2022-12-11T03:36:38.878Z,20.05
2022-12-11T03:39:09.755Z,23.40
2022-12-11T03:41:38.985Z,33.65
2022-12-11T03:44:08.630Z,23.35
2022-12-11T03:46:38.644Z,27.10
2022-12-11T03:49:09.317Z,29.05
2022-12-11T03:51:38.834Z,27.83
2022-12-11T03:54:08.821Z,24.88
2022-12-11T03:56:37.900Z,33.58
2022-12-11T03:59:07.194Z,33.88
2022-12-11T04:01:36.721Z,24.52
2022-12-11T04:04:06.049Z,25.50
2022-12-11T04:06:35.188Z,24.95
2022-12-11T04:09:04.316Z,30.63
2022-12-11T04:11:36.945Z,34.60
2022-12-11T04:14:29.704Z,22.00
2022-12-11T04:17:00.363Z,31.20
2022-12-11T04:19:48.320Z,25.75
2022-12-11T04:22:37.193Z,25.30
2022-12-11T04:25:08.782Z,30.65
2022-12-11T04:27:51.414Z,25.63
2022-12-11T04:30:28.014Z,26.13
2022-12-11T04:32:59.719Z,19.02
2022-12-11T04:35:29.344Z,20.48
2022-12-11T04:37:59.779Z,33.75
2022-12-11T04:40:29.798Z,27.42
2022-12-11T04:43:00.221Z,22.80
2022-12-11T04:45:30.141Z,21.33
2022-12-11T04:48:00.750Z,26.23
2022-12-11T04:50:30.464Z,19.92
2022-12-11T04:53:00.209Z,26.52
2022-12-11T04:55:29.877Z,19.77
2022-12-11T04:57:59.642Z,22.40
2022-12-11T05:00:29.619Z,14.32
2022-12-11T05:02:59.316Z,18.80
2022-12-11T05:05:29.305Z,17.98
2022-12-11T05:07:58.987Z,14.05
2022-12-11T05:10:28.842Z,16.15
2022-12-11T05:12:59.266Z,15.30
2022-12-11T05:15:28.922Z,12.38
2022-12-11T05:17:58.713Z,12.40
2022-12-11T05:20:28.444Z,19.40
2022-12-11T05:22:58.527Z,16.27
2022-12-11T05:25:28.444Z,13.85
2022-12-11T05:27:58.492Z,18.02
2022-12-11T05:30:28.578Z,10.57
2022-12-11T05:33:01.653Z,16.30
2022-12-11T05:35:31.267Z,18.58
2022-12-11T05:38:01.319Z,18.88
2022-12-11T05:40:32.962Z,25.08
2022-12-11T05:43:03.268Z,39.22
2022-12-11T05:45:33.280Z,33.97
2022-12-11T05:48:06.230Z,38.38
2022-12-11T05:50:36.486Z,31.48
2022-12-11T05:53:10.278Z,59.08
2022-12-11T05:55:40.962Z,43.10
2022-12-11T05:58:13.506Z,59.95
2022-12-11T06:00:43.528Z,48.78
2022-12-11T06:03:12.852Z,40.60
2022-12-11T06:05:42.764Z,33.97
2022-12-11T06:08:12.401Z,28.50
2022-12-11T06:10:46.898Z,15.98
2022-12-11T06:13:17.320Z,19.08
2022-12-11T06:15:47.496Z,29.73
2022-12-11T06:18:17.027Z,8.77
2022-12-11T06:20:47.501Z,16.05
2022-12-11T06:23:17.129Z,10.82
2022-12-11T06:25:46.686Z,9.38
2022-12-11T06:28:16.368Z,22.40
2022-12-11T06:30:46.120Z,5.22
2022-12-11T06:33:16.539Z,5.75
2022-12-11T06:35:46.215Z,11.05
2022-12-11T06:38:15.749Z,4.47
2022-12-11T06:40:45.593Z,13.45
2022-12-11T06:43:15.640Z,12.73
2022-12-11T06:45:45.764Z,7.03
2022-12-11T06:48:15.373Z,9.05
2022-12-11T06:50:44.981Z,11.55
2022-12-11T06:53:15.196Z,5.10
2022-12-11T06:55:45.523Z,15.57
2022-12-11T06:58:15.359Z,7.22
2022-12-11T07:00:45.113Z,7.70
2022-12-11T07:03:14.961Z,4.68
2022-12-11T07:05:44.855Z,7.38
2022-12-11T07:08:14.533Z,22.00
2022-12-11T07:10:44.228Z,9.88
2022-12-11T07:13:16.705Z,13.25
2022-12-11T07:15:47.687Z,14.55
2022-12-11T07:18:17.509Z,3.25
2022-12-11T07:20:46.621Z,9.20
2022-12-11T07:23:15.620Z,9.93
2022-12-11T07:25:44.740Z,8.10
2022-12-11T07:28:16.670Z,8.15
2022-12-11T07:30:46.401Z,12.40
2022-12-11T07:33:15.495Z,13.05
2022-12-11T07:35:44.547Z,18.35
2022-12-11T07:38:13.647Z,5.85
2022-12-11T07:40:43.314Z,8.32
2022-12-11T07:43:13.249Z,8.70
2022-12-11T07:45:44.628Z,21.10
2022-12-11T07:48:15.406Z,14.23
2022-12-11T07:50:45.387Z,10.40
2022-12-11T07:53:18.030Z,10.88
2022-12-11T07:55:57.008Z,11.50
2022-12-11T07:58:27.262Z,10.88
2022-12-11T08:00:56.987Z,14.57
2022-12-11T08:03:30.038Z,18.65
2022-12-11T08:06:00.255Z,14.80
2022-12-11T08:08:30.211Z,15.27
2022-12-11T08:11:07.342Z,11.05
2022-12-11T08:13:39.390Z,10.18
2022-12-11T08:16:10.504Z,13.55
2022-12-11T08:18:41.869Z,10.32
2022-12-11T08:21:12.965Z,12.98
2022-12-11T08:23:42.538Z,8.80
2022-12-11T08:26:13.180Z,17.70
2022-12-11T08:28:42.503Z,19.60
2022-12-11T08:31:11.874Z,18.50
2022-12-11T08:33:42.108Z,9.07
2022-12-11T08:36:11.942Z,18.95
2022-12-11T08:38:41.441Z,20.25
2022-12-11T08:41:14.411Z,7.95
2022-12-11T08:43:43.732Z,7.20
2022-12-11T08:46:13.714Z,10.32
2022-12-11T08:48:44.221Z,9.48
2022-12-11T08:51:14.872Z,9.07
2022-12-11T08:53:44.278Z,13.98
2022-12-11T08:56:15.227Z,9.60
2022-12-11T08:58:45.308Z,3.10
2022-12-11T09:01:15.329Z,7.60
2022-12-11T09:03:44.888Z,3.75
2022-12-11T09:06:16.028Z,15.70
2022-12-11T09:08:51.681Z,9.68
2022-12-11T09:11:28.488Z,8.68
2022-12-11T09:14:02.114Z,15.52
2022-12-11T09:16:35.790Z,16.20
2022-12-11T09:19:06.220Z,21.50
2022-12-11T09:21:36.001Z,21.85
2022-12-11T09:24:05.681Z,23.65
2022-12-11T09:26:34.960Z,7.68
2022-12-11T09:29:04.429Z,17.50
2022-12-11T09:31:34.343Z,8.65
2022-12-11T09:34:07.724Z,18.98
2022-12-11T09:36:37.429Z,20.63
2022-12-11T09:39:07.269Z,26.77
2022-12-11T09:41:36.422Z,17.88
2022-12-11T09:44:09.046Z,22.33
2022-12-11T09:46:38.423Z,22.70
2022-12-11T09:49:11.634Z,11.95
2022-12-11T09:51:42.141Z,19.10
2022-12-11T09:54:12.260Z,22.50
2022-12-11T09:56:44.803Z,20.90
2022-12-11T09:59:30.739Z,19.85
2022-12-11T10:01:59.942Z,17.45
2022-12-11T10:04:41.677Z,19.73
2022-12-11T10:07:14.616Z,25.58
2022-12-11T10:09:56.114Z,3.63
2022-12-11T10:12:25.216Z,11.43
2022-12-11T10:15:14.466Z,15.97
2022-12-11T10:17:46.454Z,12.82
2022-12-11T10:20:32.804Z,18.88
2022-12-11T10:23:02.830Z,17.50
2022-12-11T10:25:33.812Z,21.13
2022-12-11T10:28:11.664Z,22.58
2022-12-11T10:30:57.200Z,14.98
2022-12-11T10:33:37.135Z,5.65
2022-12-11T10:36:07.825Z,12.33
2022-12-11T10:38:44.423Z,8.77
2022-12-11T10:41:22.439Z,11.82
2022-12-11T10:43:53.320Z,9.32
2022-12-11T10:46:24.300Z,9.90
2022-12-11T10:48:54.662Z,10.40
2022-12-11T10:51:25.133Z,11.93
2022-12-11T10:53:55.786Z,12.93
2022-12-11T10:56:31.703Z,20.00
2022-12-11T10:59:04.020Z,17.03
2022-12-11T11:01:34.427Z,13.50
2022-12-11T11:04:08.230Z,5.57
2022-12-11T11:06:38.485Z,14.30
2022-12-11T11:09:24.319Z,10.40
2022-12-11T11:11:54.062Z,2.17
2022-12-11T11:14:23.774Z,11.77
2022-12-11T11:16:53.792Z,3.07
2022-12-11T11:19:24.763Z,3.47
2022-12-11T11:21:54.759Z,11.37
2022-12-11T11:24:38.056Z,0.33
2022-12-11T11:27:26.858Z,4.80
2022-12-11T11:29:56.770Z,4.93
2022-12-11T11:32:28.628Z,2.53
2022-12-11T11:35:14.976Z,7.10
2022-12-11T11:37:47.178Z,8.87
2022-12-11T11:40:27.740Z,5.07
2022-12-11T11:43:16.457Z,2.50
2022-12-11T11:45:49.131Z,0.37
2022-12-11T11:48:22.324Z,12.53
2022-12-11T11:50:53.032Z,5.27
2022-12-11T11:53:32.030Z,12.03
2022-12-11T11:56:08.135Z,3.87
2022-12-11T11:58:50.512Z,9.48
2022-12-11T12:01:21.135Z,8.20
2022-12-11T12:03:50.803Z,1.90
2022-12-11T12:06:33.166Z,12.43
2022-12-11T12:09:22.782Z,4.10
2022-12-11T12:12:02.196Z,9.43
2022-12-11T12:14:52.075Z,16.17
2022-12-11T12:17:25.936Z,7.53
2022-12-11T12:19:59.658Z,7.23
2022-12-11T12:22:47.397Z,6.03
2022-12-11T12:25:26.635Z,7.27
2022-12-11T12:28:15.549Z,3.23
2022-12-11T12:30:48.794Z,6.40
2022-12-11T12:33:36.968Z,9.83
2022-12-11T12:36:25.560Z,11.60
2022-12-11T12:38:57.043Z,13.47
2022-12-11T12:41:35.032Z,2.87
2022-12-11T12:44:14.911Z,10.73
2022-12-11T12:47:03.570Z,6.20
2022-12-11T12:49:37.936Z,7.93
2022-12-11T12:52:34.001Z,0.67
2022-12-11T12:55:26.453Z,7.17
2022-12-11T12:58:08.831Z,5.67
2022-12-11T13:00:39.696Z,14.20
2022-12-11T13:03:15.833Z,10.80
2022-12-11T13:08:14.289Z,2.20
2022-12-11T13:10:44.106Z,4.70
2022-12-11T13:13:51.598Z,2.50
2022-12-11T13:16:27.931Z,11.57
2022-12-11T13:18:57.463Z,6.90
2022-12-11T13:21:37.114Z,7.47
2022-12-11T13:24:26.419Z,6.70
2022-12-11T13:26:56.816Z,11.33
2022-12-11T13:29:37.802Z,3.77
2022-12-11T13:32:13.048Z,9.77
2022-12-11T13:34:43.186Z,14.87
2022-12-11T13:37:30.711Z,7.77
2022-12-11T13:40:00.222Z,8.40
2022-12-11T13:42:31.732Z,19.67
2022-12-11T13:45:01.630Z,15.10
2022-12-11T13:47:31.295Z,25.40
2022-12-11T13:50:27.287Z,16.23
2022-12-11T13:52:57.887Z,22.53
2022-12-11T13:55:37.038Z,45.23
2022-12-11T13:58:19.458Z,44.03
2022-12-11T14:01:15.301Z,61.50
2022-12-11T14:06:18.818Z,27.77
2022-12-11T14:08:50.811Z,12.47
2022-12-11T14:11:24.425Z,12.20
2022-12-11T14:13:57.810Z,7.33
2022-12-11T14:16:28.331Z,19.07
2022-12-11T14:18:59.883Z,21.27
2022-12-11T14:21:29.685Z,16.27
2022-12-11T14:23:59.657Z,15.17
2022-12-11T14:26:30.259Z,16.77
2022-12-11T14:28:59.934Z,7.83
2022-12-11T14:31:29.053Z,14.07
2022-12-11T14:34:13.390Z,4.93
2022-12-11T14:36:43.547Z,14.20
2022-12-11T14:39:16.631Z,14.53
2022-12-11T14:41:55.568Z,23.17
2022-12-11T14:44:25.716Z,12.40
2022-12-11T14:46:56.553Z,11.93
2022-12-11T14:49:33.737Z,15.00
2022-12-11T14:52:05.882Z,17.90
2022-12-11T14:54:42.828Z,13.63
2022-12-11T14:57:26.003Z,14.70
2022-12-11T15:00:02.436Z,16.00
2022-12-11T15:02:35.401Z,22.87
2022-12-11T15:05:04.709Z,8.97
2022-12-11T15:07:34.549Z,28.23
2022-12-11T15:10:04.600Z,13.30
2022-12-11T15:12:34.199Z,23.80
2022-12-11T15:15:05.294Z,30.03
2022-12-11T15:17:35.311Z,28.27
2022-12-11T15:20:05.640Z,26.23
2022-12-11T15:22:35.030Z,18.37
2022-12-11T15:25:04.330Z,18.03
2022-12-11T15:27:39.608Z,22.30
2022-12-11T15:30:27.271Z,14.45
2022-12-11T15:33:07.456Z,10.53
2022-12-11T15:35:37.550Z,19.63
2022-12-11T15:38:07.461Z,17.23
2022-12-11T15:40:37.021Z,15.73
2022-12-11T15:43:07.003Z,16.23
2022-12-11T15:45:36.554Z,12.73
2022-12-11T15:48:06.908Z,18.47
2022-12-11T15:50:37.157Z,14.47
2022-12-11T15:53:09.383Z,14.20
2022-12-11T15:55:39.416Z,7.37
2022-12-11T15:58:11.024Z,9.37
2022-12-11T16:00:40.821Z,5.33
2022-12-11T16:03:13.410Z,11.30
2022-12-11T16:05:44.458Z,7.20
2022-12-11T16:08:18.885Z,11.17
2022-12-11T16:10:48.710Z,14.07
2022-12-11T16:13:17.880Z,6.43
2022-12-11T16:15:48.637Z,13.00
2022-12-11T16:18:19.130Z,7.00
2022-12-11T16:20:48.648Z,6.50
2022-12-11T16:23:18.264Z,5.70
2022-12-11T16:25:47.420Z,16.30
2022-12-11T16:28:18.672Z,9.33
2022-12-11T16:30:48.187Z,9.50
2022-12-11T16:33:17.435Z,8.37
2022-12-11T16:35:46.600Z,21.47
2022-12-11T16:38:15.622Z,6.80
2022-12-11T16:40:46.086Z,6.13
2022-12-11T16:43:15.326Z,9.83
2022-12-11T16:45:44.333Z,11.97
2022-12-11T16:48:13.323Z,10.07
2022-12-11T16:50:42.674Z,24.63
2022-12-11T16:53:15.197Z,5.33
2022-12-11T16:55:44.693Z,13.53
2022-12-11T16:58:20.630Z,11.73
2022-12-11T17:00:50.721Z,12.45
2022-12-11T17:03:22.762Z,21.37
2022-12-11T17:05:52.338Z,21.63
2022-12-11T17:08:21.947Z,36.87
2022-12-11T17:10:50.971Z,31.13
2022-12-11T17:13:21.427Z,19.83
2022-12-11T17:15:51.305Z,24.23
2022-12-11T17:18:20.887Z,11.87
2022-12-11T17:20:50.268Z,19.30
2022-12-11T17:23:19.573Z,23.30
2022-12-11T17:25:49.055Z,9.73
2022-12-11T17:28:18.125Z,7.43
2022-12-11T17:30:49.388Z,17.47
2022-12-11T17:33:18.679Z,7.20
2022-12-11T17:35:47.694Z,15.37
2022-12-11T17:38:16.709Z,13.57
2022-12-11T17:40:45.940Z,11.17
2022-12-11T17:43:15.034Z,19.17
2022-12-11T17:45:45.023Z,17.63
2022-12-11T17:48:14.353Z,7.93
2022-12-11T17:50:43.785Z,7.00
2022-12-11T17:53:13.666Z,14.33
2022-12-11T17:55:46.186Z,12.97
2022-12-11T17:58:20.769Z,13.47
2022-12-11T18:00:50.625Z,11.27
2022-12-11T18:03:19.727Z,6.30
2022-12-11T18:05:49.816Z,14.97
2022-12-11T18:08:23.759Z,16.33
2022-12-11T18:10:56.648Z,10.40
2022-12-11T18:13:27.648Z,9.10
2022-12-11T18:16:07.669Z,10.73
2022-12-11T18:18:38.309Z,6.03
2022-12-11T18:21:07.991Z,3.47
2022-12-11T18:23:38.478Z,11.73
2022-12-11T18:26:08.042Z,7.87
2022-12-11T18:28:41.209Z,6.67
2022-12-11T18:31:11.656Z,22.40
2022-12-11T18:33:41.783Z,11.37
2022-12-11T18:36:11.761Z,3.67
2022-12-11T18:38:41.379Z,9.40
2022-12-11T18:41:11.556Z,13.07
2022-12-11T18:43:43.244Z,3.97
2022-12-11T18:46:15.263Z,6.30
2022-12-11T18:48:46.238Z,6.87
2022-12-11T18:51:18.305Z,10.77
2022-12-11T18:53:48.334Z,6.57
2022-12-11T18:56:18.681Z,11.50
2022-12-11T18:58:48.611Z,20.43
2022-12-11T19:01:22.211Z,12.50
2022-12-11T19:04:00.451Z,5.93
2022-12-11T19:06:33.730Z,10.90
2022-12-11T19:09:03.320Z,10.43
2022-12-11T19:11:32.776Z,4.67
2022-12-11T19:14:02.155Z,6.07
2022-12-11T19:16:34.313Z,16.67
2022-12-11T19:19:07.633Z,7.00
2022-12-11T19:21:38.340Z,8.20
2022-12-11T19:24:08.673Z,12.70
2022-12-11T19:26:37.790Z,3.40
2022-12-11T19:29:06.986Z,7.27
2022-12-11T19:31:36.533Z,7.13
2022-12-11T19:34:06.361Z,2.67
2022-12-11T19:36:37.978Z,5.87
2022-12-11T19:39:12.601Z,7.83
2022-12-11T19:41:42.429Z,6.30
2022-12-11T19:44:11.958Z,8.53
2022-12-11T19:46:41.580Z,3.00
2022-12-11T19:49:12.368Z,8.20
2022-12-11T19:51:42.059Z,1.63
2022-12-11T19:54:13.743Z,10.03
2022-12-11T19:56:43.798Z,12.57
2022-12-11T19:59:14.652Z,8.07
2022-12-11T20:01:44.300Z,19.27
2022-12-11T20:04:13.410Z,17.00
2022-12-11T20:06:43.527Z,7.53
2022-12-11T20:09:12.923Z,12.17
2022-12-11T20:11:42.429Z,8.73
2022-12-11T20:14:21.763Z,9.53
2022-12-11T20:19:42.284Z,5.27
2022-12-11T20:22:12.242Z,5.07
2022-12-11T20:24:42.214Z,1.27
2022-12-11T20:27:13.511Z,6.43
2022-12-11T20:29:43.791Z,3.00
2022-12-11T20:32:13.491Z,5.00
2022-12-11T20:34:43.674Z,3.10
2022-12-11T20:37:13.720Z,5.20
2022-12-11T20:39:43.543Z,7.83
2022-12-11T20:42:12.801Z,6.93
2022-12-11T20:44:47.265Z,2.97
2022-12-11T20:49:51.695Z,2.57
2022-12-11T20:52:21.810Z,5.00
2022-12-11T20:54:51.443Z,6.37
2022-12-11T20:57:21.062Z,5.97
2022-12-11T20:59:50.821Z,0.13
2022-12-11T21:02:23.365Z,6.77
2022-12-11T21:04:54.431Z,2.67
2022-12-11T21:07:24.170Z,9.43
2022-12-11T21:09:53.886Z,1.30
2022-12-11T21:12:29.830Z,12.17
2022-12-11T21:15:01.486Z,3.23
2022-12-11T21:17:31.004Z,11.90
2022-12-11T21:20:01.246Z,2.40
2022-12-11T21:22:30.851Z,1.63
2022-12-11T21:25:00.915Z,4.53
2022-12-11T21:27:30.764Z,8.23
2022-12-11T21:30:00.381Z,5.73
2022-12-11T21:32:31.092Z,16.27
2022-12-11T21:35:04.350Z,6.13
2022-12-11T21:37:34.890Z,7.87
2022-12-11T21:40:04.920Z,13.13
2022-12-11T21:42:34.533Z,12.87
2022-12-11T21:47:54.343Z,1.73
2022-12-11T21:50:23.566Z,3.17
2022-12-11T21:52:53.118Z,7.83
2022-12-11T21:55:22.486Z,2.87
2022-12-11T21:57:51.841Z,12.97
2022-12-11T22:00:26.609Z,3.93
2022-12-11T22:02:55.991Z,4.57
2022-12-11T22:05:25.542Z,4.93
2022-12-11T22:07:55.404Z,3.93
2022-12-11T22:10:24.691Z,21.57
2022-12-11T22:12:53.806Z,9.00
2022-12-11T22:15:22.846Z,13.30
2022-12-11T22:17:54.515Z,10.83
2022-12-11T22:20:24.545Z,10.77
2022-12-11T22:22:53.837Z,4.53
2022-12-11T22:25:23.003Z,20.30
2022-12-11T22:27:52.751Z,5.07
2022-12-11T22:30:22.431Z,0.10
2022-12-11T22:32:52.140Z,3.43
2022-12-11T22:35:26.874Z,7.07
2022-12-11T22:37:57.606Z,4.85
2022-12-11T22:40:27.991Z,4.30
2022-12-11T22:42:57.845Z,6.27
2022-12-11T22:45:27.708Z,7.87
2022-12-11T22:47:57.281Z,4.70
2022-12-11T22:50:26.864Z,7.47
2022-12-11T22:52:57.261Z,1.30
2022-12-11T22:55:27.640Z,0.47
2022-12-11T22:58:00.179Z,1.63
2022-12-11T23:00:30.479Z,9.73
2022-12-11T23:03:00.770Z,11.17
2022-12-11T23:05:31.365Z,6.53
2022-12-11T23:08:01.218Z,13.20
2022-12-11T23:10:31.287Z,4.33
2022-12-11T23:13:01.072Z,1.07
2022-12-11T23:15:30.877Z,5.20
2022-12-11T23:18:00.607Z,3.93
2022-12-11T23:20:30.312Z,14.97
2022-12-11T23:22:59.814Z,55.07
2022-12-11T23:25:30.075Z,61.83
2022-12-11T23:28:00.216Z,56.83
2022-12-11T23:30:29.840Z,36.30
2022-12-11T23:32:59.566Z,36.77
2022-12-11T23:35:29.105Z,4.93
2022-12-11T23:37:58.704Z,13.50
2022-12-11T23:40:28.291Z,5.43
2022-12-11T23:42:57.885Z,13.13
2022-12-11T23:45:27.629Z,11.43
2022-12-11T23:47:57.652Z,16.97
2022-12-11T23:50:28.194Z,53.80
2022-12-11T23:52:58.051Z,45.50
2022-12-11T23:55:31.163Z,45.87
2022-12-11T23:58:01.877Z,37.93
